Terminal Aerodrome Forecast
Issued by NWS

Current Version | Previous Version | Text Only | Print | Product List | Glossary On
Versions: 1 2 3 4 5 6 7 8 9 10 11 12 13 14 15 16 17 18 19 20 21 22 23 24 25 26
000
FTUS45 KSLC 042322
TAFPVU
TAF
KPVU 042322Z 0500/0524 16012G20KT P6SM VCSH SCT090 SCT200
     FM050300 15010KT P6SM SCT090 SCT200
     FM051500 15010G20KT P6SM SCT090 SCT200
     FM052200 34020G34KT P6SM SCT070 BKN100
      AMD LTD TO CLD VIS AND WIND=

USA.gov is the U.S. government's official web portal to all federal, state and local government web resources and services.